Hyundai Forward — 3EJY9 — position and weather

sailwx.info

Track history (hours):
 
Tides and Currents Weather Stations Pressure Air Temp Water Temp Dewpoint Dewpoint Depression Visibility Wind Speed Wind Dir Waves Ship Positions

Hyundai Forward

Last reported at 2017-May-27 16:21 UTC. Time now 2017-Jul-22 00:28 UTC.
Position N 33°49' E 126°56'.
Warning: this ship's position is 55 days out of date.

Length 295 m; draft 12.1 m.

Type: Cargo ship. MMSI: 372652000.

Date/timePositionNaut miles runAvg speedWind from/ knotsBaromVisibWave heightAir tempDewpointWater temp
2017-May-27 16:21N 33°49' E 126°56'2019.0
2017-May-27 15:18N 33°48' E 126°32'618.4
2017-May-27 15:00N 33°47' E 126°25'1818.2
2017-May-27 13:59N 33°47' E 126°03'918.1
2017-May-27 13:30N 33°50' E 125°54'918.9
2017-May-27 13:00N 33°55' E 125°43'1319.5
2017-May-27 12:22N 34°01' E 125°31'720.0
2017-May-27 12:00N 34°05' E 125°23'1220.4
2017-May-27 11:24N 34°11' E 125°10'920.6
2017-May-27 10:58N 34°15' E 125°00'1120.3
2017-May-27 10:24N 34°21' E 124°48'2720.1
2017-May-27 09:04N 34°34' E 124°20'919.8
2017-May-27 08:35N 34°39' E 124°10'719.7
2017-May-27 08:13N 34°43' E 124°03'1119.5
2017-May-27 07:39N 34°49' E 123°51'155 3.9
2017-May-25 15:45N 37°18' E 122°58'522.2
2017-May-25 15:30N 37°23' E 122°58'1921.0
2017-May-25 14:37N 37°40' E 122°46'1321.7
2017-May-25 14:00N 37°46' E 122°32'1620.9
2017-May-25 13:16N 37°56' E 122°16'520.3
2017-May-25 13:00N 37°58' E 122°11'1020.1
2017-May-25 12:30N 38°03' E 121°60'1020.1
2017-May-25 12:00N 38°08' E 121°48'1020.4
2017-May-25 11:30N 38°13' E 121°37'1020.6
2017-May-25 11:00N 38°19' E 121°26'1019.1
2017-May-25 10:29N 38°24' E 121°15'714.0
2017-May-25 10:00N 38°27' E 121°07'1213.1
2017-May-25 09:03N 38°33' E 120°53'115.8
2017-May-25 08:59N 38°33' E 120°52'1119.9
2017-May-25 08:24N 38°34' E 120°37'1120.1
2017-May-25 07:52N 38°35' E 120°24'112 4.3
2017-May-24 05:48N 38°57' E 118°03'1 1.4
2017-May-24 05:25N 38°57' E 118°04'0 0.1
2017-May-24 04:58N 38°57' E 118°04'0 0.1
2017-May-24 04:28N 38°57' E 118°04'0 0.0
2017-May-24 03:58N 38°57' E 118°04'0 0.1
2017-May-23 23:22N 38°57' E 118°04'0 0.3
2017-May-23 22:59N 38°57' E 118°04'3 5.6
2017-May-23 22:30N 38°56' E 118°07'5 9.6
2017-May-23 22:00N 38°54' E 118°12'612.4
2017-May-23 21:30N 38°52' E 118°20'611.8
2017-May-23 20:59N 38°51' E 118°28'812.1
2017-May-23 20:21N 38°50' E 118°38'412.7
2017-May-23 20:00N 38°49' E 118°43'712.6
2017-May-23 19:29N 38°49' E 118°52'612.4
2017-May-23 19:00N 38°49' E 118°59'812.5
2017-May-23 18:21N 38°49' E 119°10'412.2
2017-May-23 17:59N 38°48' E 119°15'712.4
2017-May-23 17:28N 38°47' E 119°24'3912.7
2017-May-23 14:24N 38°42' E 120°13'2713.6
2017-May-23 12:24N 38°38' E 120°47'613.2
2017-May-23 11:57N 38°36' E 120°55'613.1
2017-May-23 11:28N 38°34' E 121°02'613.0
2017-May-23 11:00N 38°31' E 121°09'612.7
2017-May-23 10:30N 38°29' E 121°17'612.5
2017-May-23 10:00N 38°27' E 121°24'612.4
2017-May-23 09:30N 38°25' E 121°32'612.3
2017-May-23 09:00N 38°23' E 121°39'612.6
2017-May-23 08:30N 38°20' E 121°46'713.1
2017-May-23 08:00N 38°17' E 121°54'713.5
2017-May-23 07:30N 38°14' E 122°02'1113.6
2017-May-23 06:43N 38°09' E 122°14'513.8
2017-May-23 06:21N 38°07' E 122°20'  
Track history (hours):
 
Tides and Currents Weather Stations Pressure Air Temp Water Temp Dewpoint Dewpoint Depression Visibility Wind Speed Wind Dir Waves Ship Positions

Hyundai Forward

Last reported at 2017-May-27 16:21 UTC. Time now 2017-Jul-22 00:28 UTC.
Position N 33°49' E 126°56'.
Warning: this ship's position is 55 days out of date.

Length 295 m; draft 12.1 m.

Type: Cargo ship. MMSI: 372652000.

Date/timePositionNaut miles runAvg speedWind from/ knotsBaromVisibWave heightAir tempDewpointWater temp
2017-May-27 16:21N 33°49' E 126°56'2019.0
2017-May-27 15:18N 33°48' E 126°32'618.4
2017-May-27 15:00N 33°47' E 126°25'1818.2
2017-May-27 13:59N 33°47' E 126°03'918.1
2017-May-27 13:30N 33°50' E 125°54'918.9
2017-May-27 13:00N 33°55' E 125°43'1319.5
2017-May-27 12:22N 34°01' E 125°31'720.0
2017-May-27 12:00N 34°05' E 125°23'1220.4
2017-May-27 11:24N 34°11' E 125°10'920.6
2017-May-27 10:58N 34°15' E 125°00'1120.3
2017-May-27 10:24N 34°21' E 124°48'2720.1
2017-May-27 09:04N 34°34' E 124°20'919.8
2017-May-27 08:35N 34°39' E 124°10'719.7
2017-May-27 08:13N 34°43' E 124°03'1119.5
2017-May-27 07:39N 34°49' E 123°51'155 3.9
2017-May-25 15:45N 37°18' E 122°58'522.2
2017-May-25 15:30N 37°23' E 122°58'1921.0
2017-May-25 14:37N 37°40' E 122°46'1321.7
2017-May-25 14:00N 37°46' E 122°32'1620.9
2017-May-25 13:16N 37°56' E 122°16'520.3
2017-May-25 13:00N 37°58' E 122°11'1020.1
2017-May-25 12:30N 38°03' E 121°60'1020.1
2017-May-25 12:00N 38°08' E 121°48'1020.4
2017-May-25 11:30N 38°13' E 121°37'1020.6
2017-May-25 11:00N 38°19' E 121°26'1019.1
2017-May-25 10:29N 38°24' E 121°15'714.0
2017-May-25 10:00N 38°27' E 121°07'1213.1
2017-May-25 09:03N 38°33' E 120°53'115.8
2017-May-25 08:59N 38°33' E 120°52'1119.9
2017-May-25 08:24N 38°34' E 120°37'1120.1
2017-May-25 07:52N 38°35' E 120°24'112 4.3
2017-May-24 05:48N 38°57' E 118°03'1 1.4
2017-May-24 05:25N 38°57' E 118°04'0 0.1
2017-May-24 04:58N 38°57' E 118°04'0 0.1
2017-May-24 04:28N 38°57' E 118°04'0 0.0
2017-May-24 03:58N 38°57' E 118°04'0 0.1
2017-May-23 23:22N 38°57' E 118°04'0 0.3
2017-May-23 22:59N 38°57' E 118°04'3 5.6
2017-May-23 22:30N 38°56' E 118°07'5 9.6
2017-May-23 22:00N 38°54' E 118°12'612.4
2017-May-23 21:30N 38°52' E 118°20'611.8
2017-May-23 20:59N 38°51' E 118°28'812.1
2017-May-23 20:21N 38°50' E 118°38'412.7
2017-May-23 20:00N 38°49' E 118°43'712.6
2017-May-23 19:29N 38°49' E 118°52'612.4
2017-May-23 19:00N 38°49' E 118°59'812.5
2017-May-23 18:21N 38°49' E 119°10'412.2
2017-May-23 17:59N 38°48' E 119°15'712.4
2017-May-23 17:28N 38°47' E 119°24'3912.7
2017-May-23 14:24N 38°42' E 120°13'2713.6
2017-May-23 12:24N 38°38' E 120°47'613.2
2017-May-23 11:57N 38°36' E 120°55'613.1
2017-May-23 11:28N 38°34' E 121°02'613.0
2017-May-23 11:00N 38°31' E 121°09'612.7
2017-May-23 10:30N 38°29' E 121°17'612.5
2017-May-23 10:00N 38°27' E 121°24'612.4
2017-May-23 09:30N 38°25' E 121°32'612.3
2017-May-23 09:00N 38°23' E 121°39'612.6
2017-May-23 08:30N 38°20' E 121°46'713.1
2017-May-23 08:00N 38°17' E 121°54'713.5
2017-May-23 07:30N 38°14' E 122°02'1113.6
2017-May-23 06:43N 38°09' E 122°14'513.8
2017-May-23 06:21N 38°07' E 122°20'  

Dump ship's entire track history